Time;durP1;ratioP1;P1;durP2;ratioP2;P2;SDS_P1;SDS_P2;PMS_P1;PMS_P2;Temp;Humidity;BMP_temperature;BMP_pressure;BME280_temperature;BME280_humidity;BME280_pressure;Samples;Min_cycle;Max_cycle;Signal;HPM_P1;HPM_P2
2021/09/06 04:17:33;;;;;;;11.80;8.13;;;;;;;10.87;99.91;99332.22;4953075;23;20503;-70
2021/09/06 04:19:58;;;;;;;14.07;8.65;;;;;;;10.69;99.99;99335.03;4954629;29;20098;-70
2021/09/06 04:22:23;;;;;;;12.90;8.93;;;;;;;10.67;100.00;99340.19;4954384;28;20042;-70
2021/09/06 04:24:49;;;;;;;12.35;8.85;;;;;;;10.71;100.00;99341.91;4954597;28;20031;-73
2021/09/06 04:27:14;;;;;;;12.38;8.43;;;;;;;10.65;100.00;99341.09;4954212;28;20396;-73
2021/09/06 04:29:39;;;;;;;12.23;9.27;;;;;;;10.68;100.00;99341.06;4990020;23;20018;-75
2021/09/06 04:32:06;;;;;;;13.20;9.38;;;;;;;10.62;100.00;99348.91;4934444;29;20082;-76
2021/09/06 04:34:31;;;;;;;13.63;8.57;;;;;;;10.51;100.00;99349.84;4923981;29;20028;-75
2021/09/06 04:36:57;;;;;;;11.45;8.80;;;;;;;10.44;100.00;99345.63;4916213;29;20087;-76
2021/09/06 04:39:22;;;;;;;11.23;8.60;;;;;;;10.40;100.00;99356.88;4916166;29;20031;-76
2021/09/06 04:41:47;;;;;;;14.45;8.75;;;;;;;10.45;100.00;99352.50;4915629;29;20060;-76
2021/09/06 04:44:13;;;;;;;17.95;8.77;;;;;;;10.39;100.00;99355.13;4914145;29;20082;-76
2021/09/06 04:46:38;;;;;;;11.95;8.32;;;;;;;10.46;100.00;99358.53;4916093;29;20034;-76
2021/09/06 04:49:04;;;;;;;12.23;8.95;;;;;;;10.36;100.00;99365.53;4916093;29;20024;-76
2021/09/06 04:51:30;;;;;;;12.38;8.45;;;;;;;10.36;100.00;99364.66;4931554;29;20027;-76
2021/09/06 04:53:55;;;;;;;12.80;9.18;;;;;;;10.36;100.00;99355.16;4934946;29;20489;-75
2021/09/06 04:56:22;;;;;;;15.27;8.65;;;;;;;10.41;100.00;99368.94;4934877;29;20484;-76
2021/09/06 04:58:48;;;;;;;12.90;9.38;;;;;;;10.45;100.00;99372.38;4934909;29;20692;-75
2021/09/06 05:01:13;;;;;;;11.05;9.13;;;;;;;10.46;99.91;99372.34;4933400;29;20039;-75
2021/09/06 05:03:38;;;;;;;12.60;8.50;;;;;;;10.49;100.00;99377.53;4926810;29;20028;-76
2021/09/06 05:06:04;;;;;;;14.88;9.38;;;;;;;10.55;99.29;99380.06;4921488;29;20461;-76
2021/09/06 05:08:29;;;;;;;11.75;8.70;;;;;;;10.53;99.36;99379.19;4916003;29;20039;-75
2021/09/06 05:10:55;;;;;;;10.38;8.27;;;;;;;10.57;99.05;99390.41;4914231;29;20396;-75
2021/09/06 05:13:21;;;;;;;15.20;9.50;;;;;;;10.54;98.96;99391.28;4914982;29;20517;-75
2021/09/06 05:15:46;;;;;;;16.15;9.15;;;;;;;10.52;98.93;99389.56;4915662;29;20034;-75
2021/09/06 05:18:12;;;;;;;10.88;7.68;;;;;;;10.53;98.87;99394.72;4914688;29;20119;-75
2021/09/06 05:20:37;;;;;;;11.65;8.88;;;;;;;10.48;99.32;99396.50;4924304;29;20039;-75
2021/09/06 05:23:04;;;;;;;10.40;8.52;;;;;;;10.50;98.62;99399.97;4934447;29;20038;-75
2021/09/06 05:25:29;;;;;;;14.57;8.63;;;;;;;10.53;98.74;99402.50;4934470;29;20024;-75
2021/09/06 05:27:54;;;;;;;12.02;9.50;;;;;;;10.66;98.70;99400.69;4934636;29;20492;-75
2021/09/06 05:30:20;;;;;;;11.15;8.05;;;;;;;10.75;97.66;99399.75;4934320;29;20031;-75
2021/09/06 05:32:45;;;;;;;13.13;8.88;;;;;;;10.81;97.64;99399.69;4931347;29;20103;-75
2021/09/06 05:35:10;;;;;;;12.07;8.88;;;;;;;10.85;96.94;99400.53;4929693;29;20114;-75
2021/09/06 05:37:36;;;;;;;13.85;8.60;;;;;;;10.98;96.65;99408.19;4934580;29;20027;-75
2021/09/06 05:40:03;;;;;;;14.63;8.10;;;;;;;11.05;96.13;99409.84;4934359;29;20392;-76
2021/09/06 05:42:28;;;;;;;11.38;7.47;;;;;;;11.05;96.33;99412.44;4934203;29;20036;-75
2021/09/06 05:44:53;;;;;;;11.68;8.35;;;;;;;11.16;95.89;99412.31;4934405;29;20027;-75
2021/09/06 05:47:19;;;;;;;14.68;8.80;;;;;;;11.33;95.48;99417.34;4934535;29;20111;-75
2021/09/06 05:49:45;;;;;;;8.32;7.07;;;;;;;11.52;93.94;99416.25;4934258;29;20028;-74
2021/09/06 05:52:10;;;;;;;9.60;8.02;;;;;;;11.66;94.02;99417.84;4934208;29;20200;-76
2021/09/06 05:54:35;;;;;;;9.05;7.25;;;;;;;11.79;92.66;99424.59;4934384;29;20110;-76
2021/09/06 05:57:01;;;;;;;9.48;7.80;;;;;;;11.87;91.94;99419.34;4934236;29;20031;-76
2021/09/06 05:59:26;;;;;;;10.95;8.05;;;;;;;11.97;91.12;99418.34;4934289;29;20036;-76
2021/09/06 06:01:52;;;;;;;9.13;6.80;;;;;;;12.29;90.37;99420.50;4933880;29;20119;-77
2021/09/06 06:04:17;;;;;;;9.68;7.35;;;;;;;12.48;89.47;99424.53;4926343;29;20497;-76
2021/09/06 06:06:42;;;;;;;9.25;7.20;;;;;;;12.75;88.40;99415.41;4915900;29;20482;-76
2021/09/06 06:09:08;;;;;;;8.55;6.93;;;;;;;12.78;88.17;99420.59;4915309;29;20024;-77
2021/09/06 06:11:37;;;;;;;9.98;7.80;;;;;;;12.91;86.37;99426.44;4913653;29;20024;-77
2021/09/06 06:14:03;;;;;;;8.52;7.18;;;;;;;13.15;85.79;99419.97;4915001;29;20082;-72
2021/09/06 06:16:30;;;;;;;8.95;6.78;;;;;;;13.72;83.96;99424.09;4915197;29;20107;-72
2021/09/06 06:18:55;;;;;;;12.73;7.97;;;;;;;13.46;83.26;99420.25;4915024;29;20028;-73
2021/09/06 06:21:21;;;;;;;7.72;6.38;;;;;;;14.31;80.95;99417.59;4929290;29;20027;-73
2021/09/06 06:23:47;;;;;;;8.95;6.35;;;;;;;14.45;78.63;99425.09;4935559;29;20098;-73
2021/09/06 06:26:12;;;;;;;7.30;6.30;;;;;;;14.53;77.48;99423.19;4937500;29;20110;-73
2021/09/06 06:28:38;;;;;;;8.55;6.85;;;;;;;14.65;75.96;99427.28;4937408;29;20085;-73
2021/09/06 06:31:03;;;;;;;10.65;7.07;;;;;;;14.63;76.43;99424.69;4937245;29;20034;-74
2021/09/06 06:33:30;;;;;;;10.30;7.38;;;;;;;14.62;75.60;99430.81;4928594;29;20028;-73
2021/09/06 06:35:57;;;;;;;10.98;6.53;;;;;;;14.98;75.31;99429.94;4930440;29;20135;-73
2021/09/06 06:38:23;;;;;;;17.30;7.03;;;;;;;15.05;75.31;99423.69;4937243;29;20457;-73
2021/09/06 06:40:48;;;;;;;12.50;7.18;;;;;;;15.99;71.77;99428.03;4937086;29;20071;-73
2021/09/06 06:43:13;;;;;;;9.18;6.55;;;;;;;16.85;68.31;99430.63;4937106;29;20074;-73
2021/09/06 06:45:39;;;;;;;10.98;6.95;;;;;;;16.70;67.90;99431.97;4937306;29;20112;-73
2021/09/06 06:48:04;;;;;;;7.88;6.40;;;;;;;16.83;66.67;99440.31;4937306;29;20023;-73
2021/09/06 06:50:29;;;;;;;13.65;6.13;;;;;;;18.06;63.33;99435.09;4937110;29;20032;-73
2021/09/06 06:52:55;;;;;;;8.98;6.25;;;;;;;17.66;64.56;99439.16;4936905;29;20082;-73
2021/09/06 06:55:20;;;;;;;14.02;6.15;;;;;;;18.36;61.63;99433.03;4936932;29;20039;-73
2021/09/06 06:57:46;;;;;;;10.88;6.60;;;;;;;17.83;63.25;99442.94;4936900;29;20363;-74
2021/09/06 07:00:12;;;;;;;8.52;6.13;;;;;;;18.24;61.79;99429.13;4936714;29;20028;-73
2021/09/06 07:02:37;;;;;;;8.88;6.20;;;;;;;19.37;59.20;99433.31;4929653;29;20036;-74
2021/09/06 07:05:03;;;;;;;9.68;6.65;;;;;;;20.89;54.78;99432.44;4928777;29;20031;-74
2021/09/06 07:07:28;;;;;;;10.50;5.95;;;;;;;21.61;51.53;99426.13;4936786;29;20031;-74
2021/09/06 07:09:53;;;;;;;6.88;5.53;;;;;;;20.48;54.69;99430.88;4936568;29;20035;-74
2021/09/06 07:12:18;;;;;;;7.28;6.13;;;;;;;20.29;55.22;99436.13;4936917;29;20019;-74
2021/09/06 07:14:44;;;;;;;6.50;5.47;;;;;;;20.63;55.71;99429.28;4936581;29;20028;-74
2021/09/06 07:17:09;;;;;;;9.45;6.10;;;;;;;18.34;61.51;99439.28;4936705;29;20060;-74
2021/09/06 07:19:34;;;;;;;11.88;6.00;;;;;;;18.11;64.14;99438.38;4936510;29;20118;-74
2021/09/06 07:22:00;;;;;;;12.07;6.07;;;;;;;18.56;63.09;99437.50;4936448;29;20027;-74
2021/09/06 07:24:25;;;;;;;10.57;6.22;;;;;;;19.07;60.60;99441.56;4935065;29;20039;-74
2021/09/06 07:26:50;;;;;;;10.73;6.57;;;;;;;19.42;58.95;99436.59;4935869;29;20024;-74
2021/09/06 07:29:16;;;;;;;9.63;5.90;;;;;;;21.27;54.38;99438.38;4936542;29;20525;-74
2021/09/06 07:31:41;;;;;;;9.30;6.68;;;;;;;21.66;52.11;99432.88;4936329;28;20121;-74
2021/09/06 07:34:07;;;;;;;8.25;6.20;;;;;;;21.47;53.20;99435.63;4928049;29;20482;-74
2021/09/06 07:36:34;;;;;;;10.55;5.53;;;;;;;22.42;50.91;99429.66;4917327;29;20034;-74
2021/09/06 07:39:00;;;;;;;9.93;6.13;;;;;;;23.29;47.74;99438.69;4917194;29;20032;-74
2021/09/06 07:41:26;;;;;;;6.63;5.78;;;;;;;23.28;47.66;99438.78;4916842;29;20031;-74
2021/09/06 07:43:52;;;;;;;10.40;6.10;;;;;;;22.31;50.60;99436.38;4917161;29;20470;-74
2021/09/06 07:46:17;;;;;;;6.85;5.18;;;;;;;23.09;48.42;99439.03;4917010;29;20032;-74
2021/09/06 07:48:43;;;;;;;11.85;5.38;;;;;;;23.45;47.94;99437.75;4917115;29;20028;-74
2021/09/06 07:51:08;;;;;;;14.65;5.07;;;;;;;25.39;44.31;99430.63;4929591;29;20030;-74
2021/09/06 07:53:33;;;;;;;11.52;5.72;;;;;;;23.74;46.98;99442.19;4935898;29;20103;-74
2021/09/06 07:55:59;;;;;;;5.88;5.22;;;;;;;26.03;42.18;99431.47;4935844;29;20020;-74
2021/09/06 07:58:25;;;;;;;12.80;5.38;;;;;;;25.15;43.94;99435.81;4935800;29;20078;-74
2021/09/06 08:00:50;;;;;;;11.65;5.97;;;;;;;24.61;45.14;99438.47;4935645;29;20481;-74
2021/09/06 08:03:15;;;;;;;5.93;5.30;;;;;;;27.48;39.68;99432.31;4935498;29;20047;-74
2021/09/06 08:05:41;;;;;;;10.13;5.32;;;;;;;27.89;38.95;99429.94;4927769;29;20023;-74
2021/09/06 08:08:06;;;;;;;8.00;4.72;;;;;;;29.63;34.49;99441.38;4935560;29;20027;-74
2021/09/06 08:10:32;;;;;;;8.30;5.22;;;;;;;30.79;33.08;99432.91;4935617;29;20035;-74
2021/09/06 08:12:58;;;;;;;10.07;5.22;;;;;;;31.53;31.41;99445.72;4935416;29;20031;-74
2021/09/06 08:15:25;;;;;;;10.77;4.60;;;;;;;29.16;35.81;99456.13;4935670;29;20031;-74
2021/09/06 08:17:52;;;;;;;5.50;4.40;;;;;;;31.13;32.81;99444.03;4935643;29;20485;-74
2021/09/06 08:20:17;;;;;;;4.80;4.30;;;;;;;30.75;33.75;99446.72;4935370;29;20019;-74
2021/09/06 08:22:43;;;;;;;5.68;4.85;;;;;;;27.77;36.97;99454.88;4935103;29;20043;-74
2021/09/06 08:25:10;;;;;;;6.65;4.55;;;;;;;28.65;36.75;99456.75;4935435;29;20027;-74
2021/09/06 08:27:36;;;;;;;7.60;5.32;;;;;;;28.58;37.03;99458.25;4935312;29;20024;-74
2021/09/06 08:30:03;;;;;;;7.88;5.18;;;;;;;30.21;34.21;99464.88;4935070;29;20543;-74
2021/09/06 08:32:28;;;;;;;5.28;4.78;;;;;;;32.17;31.75;99458.34;4935162;29;20054;-74
2021/09/06 08:34:54;;;;;;;8.82;4.35;;;;;;;32.34;30.02;99459.34;4927195;29;20019;-74
2021/09/06 08:37:20;;;;;;;7.38;4.72;;;;;;;33.25;29.25;99464.66;4935118;29;20031;-74
2021/09/06 08:39:46;;;;;;;7.18;4.57;;;;;;;33.13;28.36;99466.78;4935039;29;20492;-74
2021/09/06 08:42:13;;;;;;;5.22;4.63;;;;;;;34.18;27.68;99473.03;4935113;29;20063;-74
2021/09/06 08:44:38;;;;;;;7.35;4.30;;;;;;;35.46;27.12;99480.75;4925024;29;20062;-74
2021/09/06 08:47:04;;;;;;;5.18;4.20;;;;;;;35.03;25.42;99474.66;4923785;29;20061;-74
2021/09/06 08:49:29;;;;;;;5.88;4.47;;;;;;;33.45;28.01;99476.94;4939396;29;20028;-74
2021/09/06 08:51:55;;;;;;;5.80;4.90;;;;;;;34.66;26.56;99477.75;4930836;29;20120;-74
2021/09/06 08:54:20;;;;;;;7.22;4.97;;;;;;;34.77;25.82;99468.53;4916086;29;20115;-74
2021/09/06 08:56:47;;;;;;;5.53;4.60;;;;;;;33.84;27.42;99476.53;4916300;29;20389;-74
2021/09/06 08:59:13;;;;;;;15.18;5.32;;;;;;;34.49;26.29;99468.81;4915996;29;20046;-74
2021/09/06 09:01:40;;;;;;;8.43;4.80;;;;;;;35.20;25.52;99474.63;4915818;29;20107;-74
2021/09/06 09:04:32;;;;;;;7.82;5.05;;;;;;;36.10;23.95;99463.75;4915846;29;20431;-74
2021/09/06 09:07:00;;;;;;;9.90;4.55;;;;;;;34.94;25.24;99474.78;4913175;29;20489;-75
2021/09/06 09:09:30;;;;;;;8.10;4.68;;;;;;;34.86;24.87;99470.22;4915844;29;20110;-74
2021/09/06 09:12:18;;;;;;;4.45;4.05;;;;;;;35.18;24.82;99473.97;4915781;29;20032;-74
2021/09/06 09:14:53;;;;;;;8.55;4.32;;;;;;;34.79;25.35;99466.50;4916050;29;20372;-74
2021/09/06 09:17:18;;;;;;;5.93;5.05;;;;;;;33.71;26.05;99474.28;4915778;29;20036;-74
2021/09/06 09:19:45;;;;;;;9.60;4.70;;;;;;;34.36;25.77;99471.06;4930229;29;20083;-74
2021/09/06 09:22:16;;;;;;;9.48;6.90;;;;;;;34.29;26.11;99475.44;4915586;29;20031;-74
2021/09/06 09:24:43;;;;;;;8.30;4.70;;;;;;;34.84;25.10;99469.53;4915772;29;20079;-74
2021/09/06 09:27:12;;;;;;;7.45;4.80;;;;;;;35.24;24.74;99466.03;4915704;29;20036;-74
2021/09/06 09:29:43;;;;;;;6.45;4.22;;;;;;;36.15;23.15;99469.47;4915552;29;20043;-74
2021/09/06 09:32:11;;;;;;;5.25;4.45;;;;;;;35.07;26.05;99468.94;4915116;29;20024;-74
2021/09/06 09:34:41;;;;;;;4.47;4.07;;;;;;;36.39;22.93;99465.81;4924647;29;20028;-74
2021/09/06 09:37:11;;;;;;;6.20;4.30;;;;;;;36.87;22.98;99462.00;4934082;29;20059;-74
2021/09/06 09:39:37;;;;;;;8.90;4.47;;;;;;;36.69;23.42;99458.72;4934105;29;20045;-74
2021/09/06 09:42:12;;;;;;;4.93;4.53;;;;;;;37.47;22.47;99455.78;4932583;29;20028;-74
2021/09/06 09:44:58;;;;;;;8.57;4.60;;;;;;;37.29;22.61;99460.69;4934255;29;20110;-74
2021/09/06 09:47:25;;;;;;;4.95;4.22;;;;;;;36.84;22.60;99458.78;4933965;29;20031;-74
2021/09/06 09:49:53;;;;;;;5.27;4.70;;;;;;;36.94;22.15;99463.00;4933892;29;20044;-74
2021/09/06 09:52:20;;;;;;;5.90;4.57;;;;;;;35.70;24.13;99460.13;4933538;29;20026;-74
2021/09/06 09:54:48;;;;;;;6.28;5.10;;;;;;;35.01;24.91;99455.13;4933760;29;20032;-74
2021/09/06 09:57:13;;;;;;;6.40;4.43;;;;;;;35.83;23.60;99449.66;4933573;29;20035;-74
2021/09/06 09:59:41;;;;;;;5.20;4.70;;;;;;;36.27;23.33;99454.56;4926605;29;20024;-74
2021/09/06 10:02:10;;;;;;;6.72;4.63;;;;;;;35.03;24.34;99453.09;4925989;29;20036;-74
2021/09/06 10:04:43;;;;;;;5.50;4.85;;;;;;;35.95;22.71;99453.69;4927927;29;20366;-74
2021/09/06 10:07:10;;;;;;;10.40;5.07;;;;;;;34.49;24.02;99455.34;4937354;29;20164;-74
2021/09/06 10:09:43;;;;;;;8.57;4.72;;;;;;;34.68;24.00;99448.00;4937379;29;20453;-74
2021/09/06 10:12:11;;;;;;;5.00;4.38;;;;;;;34.55;23.15;99447.63;4937292;29;20034;-74
2021/09/06 10:14:36;;;;;;;7.38;4.68;;;;;;;34.94;24.39;99445.97;4937461;29;20027;-74
2021/09/06 10:17:04;;;;;;;5.15;4.65;;;;;;;35.51;23.64;99440.63;4937273;29;20089;-74
2021/09/06 10:19:43;;;;;;;;;;;;;;;36.52;23.45;99433.72;4937569;29;20027;-74
2021/09/06 10:22:26;;;;;;;5.30;4.78;;;;;;;34.56;24.06;99435.84;4936803;29;19915;-74
2021/09/06 10:24:54;;;;;;;5.00;4.60;;;;;;;35.55;22.93;99424.13;4937052;29;20433;-74
2021/09/06 10:27:20;;;;;;;5.78;4.47;;;;;;;33.57;24.05;99433.69;4936960;29;20023;-73
2021/09/06 10:29:56;;;;;;;5.63;4.50;;;;;;;36.01;21.91;99420.59;4936623;29;20032;-74
2021/09/06 10:32:33;;;;;;;4.88;4.38;;;;;;;35.72;23.40;99428.44;4952666;23;20072;-75
2021/09/06 10:35:18;;;;;;;6.30;4.37;;;;;;;33.03;25.26;99433.78;4930676;29;20023;-74
2021/09/06 10:37:46;;;;;;;9.25;4.75;;;;;;;35.26;23.74;99420.09;4926450;29;20039;-74
2021/09/06 10:40:12;;;;;;;7.28;4.70;;;;;;;33.87;24.25;99422.44;4925672;29;20084;-74
2021/09/06 10:42:41;;;;;;;4.68;4.10;;;;;;;33.21;24.82;99414.94;4925626;29;20031;-74
2021/09/06 10:45:07;;;;;;;7.28;4.60;;;;;;;35.91;23.32;99409.16;4931339;29;20024;-74
2021/09/06 10:47:38;;;;;;;4.72;4.22;;;;;;;36.19;23.47;99408.72;4936216;29;20038;-74
2021/09/06 10:50:13;;;;;;;5.30;4.80;;;;;;;35.20;22.44;99412.66;4936781;29;20075;-74
2021/09/06 10:52:42;;;;;;;6.60;4.32;;;;;;;33.75;25.22;99412.94;4936575;29;20024;-74
2021/09/06 10:55:08;;;;;;;4.82;4.43;;;;;;;31.63;27.25;99411.69;4936645;29;20059;-74
2021/09/06 10:57:39;;;;;;;5.70;4.80;;;;;;;34.28;24.58;99401.06;4935082;29;20039;-74
2021/09/06 11:00:06;;;;;;;5.00;4.60;;;;;;;33.87;24.06;99411.66;4925432;29;20036;-74
2021/09/06 11:02:32;;;;;;;5.40;4.90;;;;;;;34.66;24.43;99404.22;4932112;29;20039;-74
2021/09/06 11:04:58;;;;;;;7.03;4.95;;;;;;;32.70;26.11;99406.63;4922190;29;20091;-75
2021/09/06 11:07:23;;;;;;;4.85;4.45;;;;;;;32.63;26.16;99410.88;4936603;29;20153;-75
2021/09/06 11:09:48;;;;;;;5.75;4.72;;;;;;;30.80;27.90;99407.88;4935377;29;20030;-75
2021/09/06 11:12:14;;;;;;;4.93;4.40;;;;;;;33.19;26.09;99403.53;4936599;29;20026;-75
2021/09/06 11:14:41;;;;;;;5.72;4.50;;;;;;;33.52;24.23;99401.09;4936806;29;20028;-75
2021/09/06 11:17:18;;;;;;;5.43;4.90;;;;;;;33.28;25.07;99401.75;4936822;29;20424;-75
2021/09/06 11:19:43;;;;;;;5.20;4.70;;;;;;;32.59;26.36;99392.56;4951388;29;20029;-75
2021/09/06 11:22:14;;;;;;;5.75;4.85;;;;;;;31.97;27.29;99387.88;4919578;29;20077;-75
2021/09/06 11:24:40;;;;;;;6.22;4.47;;;;;;;32.55;27.19;99396.56;4936648;29;20024;-75
2021/09/06 11:27:06;;;;;;;8.77;4.82;;;;;;;33.28;25.51;99405.25;4936372;29;20123;-75
2021/09/06 11:29:40;;;;;;;7.35;4.38;;;;;;;34.14;24.90;99396.34;4936624;29;20111;-75
2021/09/06 11:32:05;;;;;;;6.50;4.80;;;;;;;36.04;23.18;99387.88;4935009;29;20481;-75
2021/09/06 11:34:31;;;;;;;11.38;4.30;;;;;;;32.42;26.67;99402.31;4942499;29;20038;-75
2021/09/06 11:36:56;;;;;;;6.90;4.00;;;;;;;35.64;23.73;99390.72;4916270;29;20437;-75
2021/09/06 11:39:29;;;;;;;9.43;4.40;;;;;;;34.15;24.40;99395.34;4917598;29;20107;-75
2021/09/06 11:41:55;;;;;;;5.88;4.63;;;;;;;35.28;22.61;99388.41;4900366;29;20028;-76
2021/09/06 11:44:20;;;;;;;6.15;4.40;;;;;;;33.42;25.26;99396.66;4924520;29;20367;-76
2021/09/06 11:46:46;;;;;;;6.25;4.53;;;;;;;32.69;25.85;99398.72;4937546;29;20628;-76
2021/09/06 11:49:17;;;;;;;5.20;4.80;;;;;;;34.39;23.80;99394.56;4917003;29;20434;-76
2021/09/06 11:51:42;;;;;;;5.18;4.68;;;;;;;34.09;24.33;99393.28;4931674;29;20055;-77
2021/09/06 11:54:12;;;;;;;6.00;4.13;;;;;;;34.98;23.33;99390.78;4930076;29;20059;-76
2021/09/06 11:56:38;;;;;;;4.72;4.25;;;;;;;31.67;27.30;99385.41;4918575;29;20099;-76
2021/09/06 11:59:03;;;;;;;6.93;5.28;;;;;;;33.50;26.15;99390.47;4916564;29;20036;-76
2021/09/06 12:01:29;;;;;;;5.40;4.75;;;;;;;33.57;25.05;99385.31;4916168;29;20542;-76
2021/09/06 12:04:08;;;;;;;6.45;4.55;;;;;;;32.70;26.03;99379.78;4931859;29;20028;-76
2021/09/06 12:06:37;;;;;;;8.30;4.68;;;;;;;30.06;29.98;99386.00;4933285;29;20512;-76
2021/09/06 12:09:03;;;;;;;8.40;5.30;;;;;;;29.69;31.10;99394.63;4935556;29;20039;-76
2021/09/06 12:11:36;;;;;;;5.72;5.00;;;;;;;29.85;29.97;99380.75;4935354;29;20030;-76
2021/09/06 12:14:03;;;;;;;6.57;4.95;;;;;;;28.77;31.97;99391.75;4935398;29;20038;-76
2021/09/06 12:16:30;;;;;;;5.20;4.70;;;;;;;29.01;32.26;99382.66;4935648;29;20134;-76
2021/09/06 12:18:57;;;;;;;6.15;5.53;;;;;;;28.80;32.16;99380.78;4935282;29;20031;-76
2021/09/06 12:21:24;;;;;;;6.13;5.45;;;;;;;28.79;31.66;99388.94;4934804;29;20035;-75
2021/09/06 12:24:00;;;;;;;14.23;8.93;;;;;;;28.71;32.31;99380.72;4935541;29;20026;-75
2021/09/06 12:26:26;;;;;;;5.88;5.10;;;;;;;28.75;32.00;99385.66;4935181;29;20027;-75
2021/09/06 12:28:57;;;;;;;5.78;5.18;;;;;;;28.34;32.05;99379.28;4935347;29;20071;-75
2021/09/06 12:31:24;;;;;;;8.05;4.82;;;;;;;28.12;32.34;99385.47;4934763;29;20485;-75
2021/09/06 12:33:50;;;;;;;7.60;5.35;;;;;;;27.47;32.02;99393.34;4927265;29;20035;-75
2021/09/06 12:36:17;;;;;;;8.57;4.75;;;;;;;27.88;31.99;99393.63;4920860;29;20032;-75
2021/09/06 12:38:43;;;;;;;5.47;4.97;;;;;;;27.57;31.51;99386.34;4916193;29;20485;-75
2021/09/06 12:41:08;;;;;;;6.38;4.95;;;;;;;27.74;31.27;99377.88;4915791;29;20079;-76
2021/09/06 12:43:34;;;;;;;7.07;5.20;;;;;;;27.80;30.65;99380.09;4916026;29;20083;-76
2021/09/06 12:45:59;;;;;;;6.88;4.85;;;;;;;27.88;32.23;99380.28;4916112;29;20027;-76
2021/09/06 12:48:25;;;;;;;8.38;5.15;;;;;;;28.02;31.91;99378.34;4915969;29;20043;-76
2021/09/06 12:50:51;;;;;;;6.00;5.25;;;;;;;27.61;31.96;99379.81;4926427;29;20413;-76
2021/09/06 12:53:17;;;;;;;5.78;5.18;;;;;;;28.46;31.10;99376.56;4934421;29;20074;-76
2021/09/06 12:55:43;;;;;;;5.90;4.47;;;;;;;28.24;31.47;99383.66;4924871;29;20028;-76
2021/09/06 12:58:08;;;;;;;6.85;5.20;;;;;;;27.82;31.59;99380.78;4929174;29;20032;-76
2021/09/06 13:00:34;;;;;;;7.22;4.78;;;;;;;27.04;32.25;99385.97;4934757;29;20174;-76
2021/09/06 13:03:01;;;;;;;7.85;4.65;;;;;;;27.28;33.27;99384.13;4926980;29;20024;-76
2021/09/06 13:05:27;;;;;;;6.43;4.95;;;;;;;27.56;33.08;99376.63;4926829;29;20032;-76
2021/09/06 13:07:52;;;;;;;6.75;5.63;;;;;;;27.51;32.14;99378.81;4934860;29;20380;-76
2021/09/06 13:10:18;;;;;;;5.65;5.13;;;;;;;27.93;30.93;99370.13;4934609;29;20020;-76
2021/09/06 13:12:44;;;;;;;7.53;4.68;;;;;;;27.44;31.55;99372.28;4934474;29;20032;-76
2021/09/06 13:15:10;;;;;;;6.93;4.57;;;;;;;27.50;31.36;99372.63;4928659;29;20032;-76
2021/09/06 13:17:36;;;;;;;6.63;4.53;;;;;;;27.58;30.62;99364.06;4930828;29;20100;-76
2021/09/06 13:20:03;;;;;;;5.55;4.93;;;;;;;28.07;31.71;99370.81;4927381;29;20024;-76
2021/09/06 13:22:29;;;;;;;6.88;4.90;;;;;;;27.71;32.06;99358.63;4926324;29;20024;-76
2021/09/06 13:24:54;;;;;;;5.45;4.90;;;;;;;27.40;31.80;99367.19;4925636;29;20033;-76
2021/09/06 13:27:19;;;;;;;7.65;5.55;;;;;;;27.81;31.85;99365.78;4926142;29;20028;-76
2021/09/06 13:29:45;;;;;;;6.95;4.72;;;;;;;27.21;31.02;99366.94;4916642;29;20052;-76
2021/09/06 13:32:11;;;;;;;6.82;4.78;;;;;;;26.88;31.86;99365.88;4920390;29;20035;-76
2021/09/06 13:34:36;;;;;;;5.80;4.65;;;;;;;26.46;32.23;99369.09;4929612;29;20059;-76
2021/09/06 13:37:03;;;;;;;8.35;5.28;;;;;;;26.87;33.39;99358.84;4938369;29;20063;-76
2021/09/06 13:39:29;;;;;;;8.57;4.95;;;;;;;27.38;31.53;99369.13;4938244;29;20028;-76
2021/09/06 13:41:54;;;;;;;5.22;4.72;;;;;;;27.61;31.87;99361.16;4937958;29;20031;-76
2021/09/06 13:44:19;;;;;;;9.23;5.05;;;;;;;27.74;31.64;99353.91;4938259;29;20106;-76
2021/09/06 13:46:45;;;;;;;8.80;5.22;;;;;;;28.22;29.76;99353.59;4938120;29;20453;-76
2021/09/06 13:49:11;;;;;;;6.03;4.68;;;;;;;28.53;30.78;99356.41;4938155;29;20037;-76
2021/09/06 13:51:37;;;;;;;8.38;4.90;;;;;;;28.67;30.19;99348.97;4937715;29;20425;-76
2021/09/06 13:54:02;;;;;;;6.03;4.88;;;;;;;28.61;30.33;99353.97;4936640;29;20493;-76
2021/09/06 13:56:30;;;;;;;7.00;4.93;;;;;;;28.61;31.13;99356.63;4938028;29;20036;-76
2021/09/06 13:58:56;;;;;;;6.77;5.17;;;;;;;28.13;30.50;99349.00;4936730;29;20366;-76
2021/09/06 14:01:21;;;;;;;6.97;5.20;;;;;;;28.30;31.66;99356.47;4937885;29;20059;-76
2021/09/06 14:03:47;;;;;;;6.53;5.05;;;;;;;28.62;30.14;99355.66;4927557;29;20381;-76
2021/09/06 14:06:12;;;;;;;5.85;5.18;;;;;;;27.89;31.15;99351.84;4918954;29;20066;-76
2021/09/06 14:08:38;;;;;;;5.70;4.20;;;;;;;27.51;30.92;99353.06;4918691;29;20099;-76
2021/09/06 14:11:03;;;;;;;6.32;4.68;;;;;;;27.51;30.62;99346.88;4918717;29;20032;-76
2021/09/06 14:13:28;;;;;;;8.75;5.00;;;;;;;27.24;30.75;99353.41;4918367;29;20032;-76
2021/09/06 14:15:54;;;;;;;5.88;4.57;;;;;;;27.58;31.41;99348.09;4917456;29;20035;-76
2021/09/06 14:18:19;;;;;;;6.28;4.78;;;;;;;27.71;31.21;99348.84;4918599;29;20028;-76
2021/09/06 14:20:44;;;;;;;5.75;5.00;;;;;;;27.35;29.86;99348.06;4928185;29;20036;-76
2021/09/06 14:23:10;;;;;;;6.80;5.07;;;;;;;27.30;30.09;99350.25;4937111;29;20031;-76
2021/09/06 14:25:36;;;;;;;7.07;5.03;;;;;;;27.58;29.50;99342.75;4937572;29;20027;-76
2021/09/06 14:28:02;;;;;;;6.78;4.82;;;;;;;27.37;30.27;99350.63;4937371;29;20507;-76
2021/09/06 14:30:28;;;;;;;6.53;5.28;;;;;;;27.52;30.74;99348.59;4937152;29;20038;-76
2021/09/06 14:32:53;;;;;;;5.78;4.72;;;;;;;27.29;30.66;99347.72;4929218;29;20016;-76
2021/09/06 14:35:19;;;;;;;6.00;4.90;;;;;;;27.52;31.03;99346.75;4922964;29;20035;-76
2021/09/06 14:37:44;;;;;;;7.57;5.75;;;;;;;27.98;31.57;99344.94;4918184;29;20088;-76
2021/09/06 14:40:09;;;;;;;9.00;5.10;;;;;;;28.17;31.56;99345.97;4916945;29;20082;-76
2021/09/06 14:42:36;;;;;;;6.45;4.47;;;;;;;27.96;30.85;99341.56;4917851;29;20028;-76
2021/09/06 14:45:03;;;;;;;5.50;4.63;;;;;;;28.12;30.45;99342.84;4917855;29;20481;-76
2021/09/06 14:47:28;;;;;;;10.95;5.25;;;;;;;28.40;31.39;99345.94;4918189;29;20032;-76
2021/09/06 14:49:54;;;;;;;9.48;5.30;;;;;;;28.09;31.03;99342.22;4921144;29;20028;-75
2021/09/06 14:52:19;;;;;;;9.38;5.20;;;;;;;28.25;31.40;99347.16;4936747;29;20562;-76
2021/09/06 14:54:45;;;;;;;10.10;5.22;;;;;;;28.19;31.22;99345.88;4936849;29;20041;-76
2021/09/06 14:57:10;;;;;;;10.52;5.55;;;;;;;28.10;30.52;99341.28;4936946;29;20033;-76
2021/09/06 14:59:35;;;;;;;6.82;4.55;;;;;;;27.68;31.26;99338.41;4936826;29;20036;-76
2021/09/06 15:02:01;;;;;;;4.80;4.35;;;;;;;27.90;30.93;99335.75;4932487;29;20488;-76
2021/09/06 15:04:26;;;;;;;5.72;5.13;;;;;;;27.87;31.39;99335.97;4925481;29;20028;-76
2021/09/06 15:06:56;;;;;;;5.55;4.93;;;;;;;27.86;30.42;99331.63;4916372;29;20502;-76
2021/09/06 15:09:22;;;;;;;7.18;5.57;;;;;;;27.86;31.71;99336.97;4917757;29;20111;-75
2021/09/06 15:11:47;;;;;;;6.63;4.70;;;;;;;27.71;31.77;99335.53;4917503;29;20120;-75
2021/09/06 15:14:12;;;;;;;10.00;5.47;;;;;;;27.88;31.11;99342.16;4917678;29;20043;-76
2021/09/06 15:16:38;;;;;;;6.88;5.18;;;;;;;27.63;31.31;99335.25;4917829;29;20035;-75
2021/09/06 15:19:03;;;;;;;5.10;4.60;;;;;;;27.80;31.23;99332.13;4917659;29;20081;-76
2021/09/06 15:21:28;;;;;;;7.07;5.05;;;;;;;27.71;31.84;99338.19;4932529;29;20027;-76
2021/09/06 15:23:54;;;;;;;7.45;5.18;;;;;;;27.57;32.95;99335.75;4936485;29;20496;-76
2021/09/06 15:26:19;;;;;;;6.30;5.15;;;;;;;27.62;33.61;99338.91;4936458;29;20030;-76
2021/09/06 15:28:44;;;;;;;13.27;5.30;;;;;;;27.24;34.39;99334.75;4936457;29;20038;-76
2021/09/06 15:31:15;;;;;;;7.28;5.18;;;;;;;26.98;35.75;99343.88;4936170;29;20031;-76
2021/09/06 15:33:41;;;;;;;17.05;5.95;;;;;;;26.56;37.72;99339.03;4926999;29;20055;-76
2021/09/06 15:36:07;;;;;;;5.88;5.15;;;;;;;26.83;36.47;99346.72;4917207;29;20103;-76
2021/09/06 15:38:33;;;;;;;6.88;5.32;;;;;;;26.25;37.63;99339.59;4917575;29;20128;-76
2021/09/06 15:41:02;;;;;;;10.02;5.40;;;;;;;25.71;39.01;99338.13;4916951;29;20036;-76
2021/09/06 15:43:40;;;;;;;6.03;5.50;;;;;;;25.63;38.10;99332.53;4917155;29;20035;-76
2021/09/06 15:46:09;;;;;;;8.55;5.15;;;;;;;25.97;38.10;99338.97;4917067;29;20036;-77